No particular awareness of the weather is required.    There are no Weather-warnings


Meteo18 Weather Cam more information Meteo18 Weather Cam


Thunder radar more information blitzortung!


Rain radar more information rain snow radar


Visit our other weather sites:

Template documentation
and downloads

And another site



Weather Underground History page Text

Daily Summary for March 2, 2018 Units:  Metric    English   Both
« Previous Day
Next Day »
Daily Weekly Monthly Yearly Custom
  High: Low: Average:
Temperature: -17.8 °C -17 °C -14.5 °C
Dew Point: -17.8 °C -18.7 °C -16.4 °C
Humidity: Humidity % 58 % 79 %
Wind Speed: 0 km/h 0 km/h 13.7 km/h
Wind Gust: 0 km/h - -
Wind:- - SSW
Pressure: 0 hPa 33375.8 hPa -
Precipitation: 180.34 mm    
Historical Graphs
 
 
Tabular Data for March 2, 2018
Time Temperature Dew Point Pressure Wind Wind Speed Wind Gust Humidity Rainfall Rate (Hourly)
-17.8 °C -17.8 °C 0 hPa Calm     Humidity % 0 mm
00:00 -14.3 °C -15.8 °C 33396.1 hPa East 7.6 km/h 28.5 km/h 83 % 0 mm
00:06 -14.3 °C -15.8 °C 33396.1 hPa East 12.7 km/h 20.8 km/h 83 % 0 mm
00:12 -14.3 °C -15.8 °C 33396.1 hPa ESE 2.3 km/h 20.8 km/h 83 % 0 mm
00:18 -14.3 °C -15.8 °C 33396.1 hPa SE 10.3 km/h 18.2 km/h 83 % 0 mm
00:24 -14.3 °C -15.8 °C 33386 hPa ESE 7.6 km/h 18.2 km/h 83 % 0 mm
00:30 -14.4 °C -15.9 °C 33396.1 hPa East 10.3 km/h 10.3 km/h 83 % 0 mm
00:36 -14.5 °C -15.9 °C 33396.1 hPa East 2.3 km/h 10.3 km/h 84 % 0 mm
00:42 -14.6 °C -16 °C 33396.1 hPa ESE 5.1 km/h 15.6 km/h 84 % 0 mm
00:48 -14.6 °C -15.9 °C 33396.1 hPa East 5.1 km/h 10.3 km/h 85 % 0 mm
00:54 -14.6 °C -15.9 °C 33396.1 hPa East 5.1 km/h 10.3 km/h 85 % 0 mm
01:00 -14.6 °C -15.9 °C 33396.1 hPa East 7.6 km/h 18.2 km/h 85 % 0 mm
01:06 -14.5 °C -15.8 °C 33386 hPa East 7.6 km/h 12.9 km/h 85 % 0 mm
01:12 -14.5 °C -15.8 °C 33396.1 hPa SE 7.6 km/h 18.2 km/h 85 % 0 mm
01:18 -14.4 °C -15.7 °C 33396.1 hPa East 7.6 km/h 15.6 km/h 85 % 0 mm
01:24 -14.3 °C -15.6 °C 33386 hPa East 15.6 km/h 18.2 km/h 85 % 0 mm
01:30 -14.3 °C -15.7 °C 33386 hPa East 2.3 km/h 7.7 km/h 84 % 0 mm
01:36 -14.3 °C -15.7 °C 33386 hPa SE 7.6 km/h 10.3 km/h 84 % 0 mm
01:43 -14.3 °C -15.6 °C 33386 hPa ESE 2.3 km/h 12.9 km/h 85 % 0 mm
01:49 -14.3 °C -15.6 °C 33386 hPa SE 5.1 km/h 12.9 km/h 85 % 0 mm
01:55 -14.3 °C -15.6 °C 33375.8 hPa SE 5.1 km/h 12.9 km/h 85 % 0 mm
02:01 -14.3 °C -15.6 °C 33386 hPa SE 7.6 km/h 12.9 km/h 85 % 0 mm
02:07 -14.3 °C -15.6 °C 33375.8 hPa SSE 5.1 km/h 12.9 km/h 85 % 0 mm
02:13 -14.2 °C -15.5 °C 33375.8 hPa SE 15.6 km/h 15.6 km/h 85 % 0 mm
02:19 -14.1 °C -15.5 °C 33375.8 hPa ESE 10.3 km/h 15.6 km/h 84 % 0 mm
02:25 -14.1 °C -15.4 °C 33375.8 hPa SE 2.3 km/h 23.3 km/h 84 % 0 mm
02:31 -14.1 °C -15.4 °C 33386 hPa SE 15.6 km/h 18.2 km/h 84 % 0 mm
02:37 -14.1 °C -15.4 °C 33386 hPa SE 7.6 km/h 15.6 km/h 84 % 0 mm
02:43 -14.1 °C -15.4 °C 33386 hPa SE 10.3 km/h 18.2 km/h 84 % 0 mm
02:49 -14.1 °C -15.4 °C 33386 hPa SE 2.3 km/h 10.3 km/h 84 % 0 mm
02:55 -14.1 °C -15.5 °C 33386 hPa SSE 2.3 km/h 10.3 km/h 84 % 0 mm
03:01 -14.2 °C -15.4 °C 33386 hPa Calm   12.9 km/h 85 % 0 mm
03:07 -14.2 °C -15.4 °C 33386 hPa Calm   7.7 km/h 86 % 0 mm
03:13 -14.3 °C -15.4 °C 33386 hPa SE 2.3 km/h 2.6 km/h 87 % 7.62 mm
03:19 -14.3 °C -15.4 °C 33375.8 hPa Calm   5.1 km/h 87 % 7.62 mm
03:25 -14.4 °C -15.4 °C 33375.8 hPa Calm   2.6 km/h 88 % 12.7 mm
03:31 -14.4 °C -15.4 °C 33375.8 hPa Calm     88 % 12.7 mm
03:37 -14.4 °C -15.4 °C 33375.8 hPa Calm     89 % 12.7 mm
03:43 -14.4 °C -15.4 °C 33375.8 hPa Calm   2.6 km/h 89 % 20.32 mm
03:49 -14.4 °C -15.3 °C 33375.8 hPa Calm   2.6 km/h 89 % 25.4 mm
03:55 -14.4 °C -15.3 °C 33375.8 hPa Calm   2.6 km/h 89 % 33.02 mm
04:01 -14.4 °C -15.3 °C 33386 hPa SE 7.6 km/h 10.3 km/h 90 % 38.1 mm
04:07 -14.4 °C -15.3 °C 33375.8 hPa ESE 2.3 km/h 5.1 km/h 90 % 38.1 mm
04:13 -14.5 °C -15.3 °C 33375.8 hPa Calm   7.7 km/h 91 % 38.1 mm
04:19 -14.6 °C -15.4 °C 33375.8 hPa ESE 2.3 km/h 5.1 km/h 91 % 45.72 mm
04:25 -14.6 °C -15.3 °C 33386 hPa ESE 2.3 km/h 5.1 km/h 92 % 45.72 mm
04:31 -14.7 °C -15.3 °C 33386 hPa Calm   7.7 km/h 92 % 58.42 mm
04:37 -14.7 °C -15.2 °C 33375.8 hPa ESE 2.3 km/h 5.1 km/h 93 % 58.42 mm
04:43 -14.8 °C -15.3 °C 33386 hPa Calm   5.1 km/h 93 % 58.42 mm
04:49 -14.8 °C -15.4 °C 33386 hPa SE 5.1 km/h 5.1 km/h 93 % 58.42 mm
04:55 -14.8 °C -15.3 °C 33386 hPa Calm   7.7 km/h 94 % 58.42 mm
05:01 -14.8 °C -15.3 °C 33386 hPa Calm   5.1 km/h 94 % 58.42 mm
05:07 -14.8 °C -15.3 °C 33386 hPa South 5.1 km/h 7.7 km/h 94 % 58.42 mm
05:13 -14.8 °C -15.3 °C 33386 hPa Calm   5.1 km/h 94 % 58.42 mm
05:19 -14.8 °C -15.3 °C 33386 hPa SSE 2.3 km/h 2.6 km/h 94 % 58.42 mm
05:25 -14.9 °C -15.4 °C 33386 hPa SSW 2.3 km/h 5.1 km/h 94 % 50.8 mm
05:31 -14.9 °C -15.3 °C 33386 hPa South 7.6 km/h 10.3 km/h 95 % 45.72 mm
05:37 -14.9 °C -15.3 °C 33396.1 hPa SE 2.3 km/h 18.2 km/h 95 % 38.1 mm
05:43 -14.9 °C -15.3 °C 33396.1 hPa SE 10.3 km/h 12.9 km/h 95 % 33.02 mm
05:49 -14.9 °C -15.3 °C 33396.1 hPa SSE 7.6 km/h 10.3 km/h 95 % 33.02 mm
05:55 -14.9 °C -15.3 °C 33396.1 hPa SE 2.3 km/h 10.3 km/h 95 % 33.02 mm
06:01 -14.9 °C -15.3 °C 33396.1 hPa SE 2.3 km/h 12.9 km/h 95 % 33.02 mm
06:07 -15.1 °C -15.4 °C 33396.1 hPa SSE 2.3 km/h 7.7 km/h 95 % 33.02 mm
06:13 -15.1 °C -15.4 °C 33396.1 hPa SSE 7.6 km/h 12.9 km/h 95 % 33.02 mm
06:19 -15.1 °C -15.4 °C 33409.7 hPa South 5.1 km/h 15.6 km/h 95 % 25.4 mm
06:25 -15.1 °C -15.5 °C 33409.7 hPa SSE 5.1 km/h 23.3 km/h 95 % 33.02 mm
06:31 -15.1 °C -15.5 °C 33419.8 hPa SSW 10.3 km/h 20.8 km/h 95 % 33.02 mm
06:37 -15.2 °C -15.6 °C 33419.8 hPa SSW 12.7 km/h 18.2 km/h 95 % 33.02 mm
06:43 -15.1 °C -15.4 °C 33419.8 hPa SW 17.9 km/h 23.3 km/h 96 % 33.02 mm
06:49 -14.9 °C -15.3 °C 33419.8 hPa SW 23 km/h 23.3 km/h 96 % 33.02 mm
06:55 -14.9 °C -15.2 °C 33419.8 hPa SSW 12.7 km/h 31.1 km/h 96 % 25.4 mm
07:01 -14.7 °C -15.1 °C 33433.4 hPa SW 17.9 km/h 25.9 km/h 96 % 33.02 mm
07:07 -14.6 °C -14.9 °C 33433.4 hPa SSW 15.6 km/h 23.3 km/h 96 % 33.02 mm
07:13 -14.6 °C -14.9 °C 33433.4 hPa WSW 15.6 km/h 25.9 km/h 95 % 25.4 mm
07:19 -14.6 °C -14.9 °C 33433.4 hPa SSW 10.3 km/h 20.8 km/h 95 % 33.02 mm
07:25 -14.6 °C -14.9 °C 33443.5 hPa SW 10.3 km/h 12.9 km/h 95 % 25.4 mm
07:31 -14.6 °C -14.9 °C 33443.5 hPa South 12.7 km/h 18.2 km/h 95 % 25.4 mm
07:37 -14.6 °C -15 °C 33443.5 hPa SSW 7.6 km/h 15.6 km/h 95 % 33.02 mm
07:43 -14.7 °C -15.1 °C 33453.7 hPa SW 15.6 km/h 23.3 km/h 95 % 33.02 mm
07:49 -14.7 °C -15.1 °C 33453.7 hPa SW 12.7 km/h 15.6 km/h 95 % 25.4 mm
07:55 -14.6 °C -14.9 °C 33453.7 hPa SSW 12.7 km/h 23.3 km/h 96 % 25.4 mm
08:01 -14.6 °C -14.9 °C 33453.7 hPa SW 7.6 km/h 18.2 km/h 96 % 25.4 mm
08:07 -14.6 °C -14.9 °C 33453.7 hPa SSW 12.7 km/h 20.8 km/h 96 % 20.32 mm
08:13 -14.6 °C -14.9 °C 33467.2 hPa WSW 7.6 km/h 25.9 km/h 96 % 20.32 mm
08:19 -14.6 °C -14.9 °C 33477.4 hPa SSW 20.9 km/h 33.6 km/h 96 % 12.7 mm
08:25 -14.6 °C -14.9 °C 33477.4 hPa SW 17.9 km/h 28.5 km/h 95 % 12.7 mm
08:31 -14.5 °C -14.9 °C 33477.4 hPa WSW 17.9 km/h 38.8 km/h 95 % 12.7 mm
08:37 -14.4 °C -14.8 °C 33477.4 hPa West 28.5 km/h 46.7 km/h 95 % 7.62 mm
08:43 -14.4 °C -14.9 °C 33490.9 hPa WSW 20.9 km/h 41.4 km/h 94 % 7.62 mm
08:49 -14.4 °C -14.9 °C 33490.9 hPa WSW 36.5 km/h 44.1 km/h 94 % 7.62 mm
08:55 -14.3 °C -14.9 °C 33501.1 hPa SSW 10.3 km/h 49.2 km/h 93 % 7.62 mm
09:01 -14.3 °C -14.9 °C 33511.2 hPa WSW 44.1 km/h 51.8 km/h 92 % 0 mm
09:07 -14.3 °C -15.1 °C 33511.2 hPa West 20.9 km/h 41.4 km/h 91 % 0 mm
09:13 -14.3 °C -15.1 °C 33524.8 hPa WSW 10.3 km/h 36.2 km/h 91 % 0 mm
09:19 -14.3 °C -15.1 °C 33524.8 hPa WSW 26.2 km/h 41.4 km/h 91 % 0 mm
09:25 -14.3 °C -15.1 °C 33524.8 hPa SW 26.2 km/h 38.8 km/h 90 % 0 mm
09:32 -14.2 °C -15.1 °C 33545.1 hPa WSW 12.7 km/h 36.2 km/h 90 % 0 mm
09:37 -14.3 °C -15.1 °C 33545.1 hPa SW 17.9 km/h 36.2 km/h 90 % 0 mm
09:44 -14.3 °C -15.2 °C 33545.1 hPa SW 28.5 km/h 38.8 km/h 89 % 0 mm
09:50 -14.3 °C -15.2 °C 33558.6 hPa WSW 33.6 km/h 36.2 km/h 89 % 0 mm
09:56 -14.3 °C -15.2 °C 33558.6 hPa WSW 20.9 km/h 49.2 km/h 89 % 0 mm
10:02 -14.3 °C -15.3 °C 33568.8 hPa WSW 20.9 km/h 31.1 km/h 88 % 0 mm
10:08 -14.3 °C -15.3 °C 33568.8 hPa SSW 26.2 km/h 36.2 km/h 88 % 0 mm
10:14 -14.3 °C -15.3 °C 33568.8 hPa SW 23 km/h 38.8 km/h 88 % 0 mm
10:20 -14.2 °C -15.3 °C 33582.3 hPa WSW 26.2 km/h 49.2 km/h 87 % 0 mm
10:28 -14.1 °C -15.3 °C 33582.3 hPa SW 15.6 km/h 31.1 km/h 86 % 0 mm
10:34 -14.1 °C -15.4 °C 33592.5 hPa WSW 38.8 km/h 49.2 km/h 84 % 0 mm
10:40 -13.9 °C -15.4 °C 33602.7 hPa West 33.6 km/h 36.2 km/h 83 % 0 mm
10:46 -13.8 °C -15.4 °C 33602.7 hPa WSW 36.5 km/h 41.4 km/h 82 % 0 mm
10:52 -13.8 °C -15.6 °C 33602.7 hPa SW 17.9 km/h 62.1 km/h 80 % 0 mm
10:58 -13.7 °C -15.7 °C 33602.7 hPa WSW 31.4 km/h 49.2 km/h 78 % 0 mm
11:04 -13.6 °C -15.8 °C 33602.7 hPa SW 28.5 km/h 54.4 km/h 76 % 0 mm
11:10 -13.6 °C -15.8 °C 33616.2 hPa WSW 46.3 km/h 67.3 km/h 75 % 0 mm
11:16 -13.6 °C -15.8 °C 33616.2 hPa SSW 28.5 km/h 49.2 km/h 76 % 0 mm
11:22 -13.6 °C -15.8 °C 33626.4 hPa WSW 33.6 km/h 51.8 km/h 76 % 0 mm
11:28 -13.6 °C -15.8 °C 33626.4 hPa WSW 28.5 km/h 44.1 km/h 76 % 0 mm
11:34 -13.6 °C -15.9 °C 33626.4 hPa SSW 10.3 km/h 44.1 km/h 75 % 0 mm
11:40 -13.7 °C -15.9 °C 33626.4 hPa WSW 36.5 km/h 38.8 km/h 75 % 0 mm
11:46 -13.6 °C -16.1 °C 33639.9 hPa West 33.6 km/h 46.7 km/h 73 % 0 mm
11:52 -13.5 °C -16 °C 33639.9 hPa SW 28.5 km/h 49.2 km/h 73 % 0 mm
11:58 -13.4 °C -16.1 °C 33639.9 hPa SW 49.2 km/h 51.8 km/h 72 % 0 mm
12:04 -13.4 °C -16.5 °C 33639.9 hPa WSW 49.2 km/h 59.5 km/h 68 % 0 mm
12:10 -13.4 °C -16.3 °C 33639.9 hPa West 20.9 km/h 54.4 km/h 69 % 0 mm
12:16 -13.3 °C -16.3 °C 33639.9 hPa SW 54.4 km/h 54.4 km/h 69 % 0 mm
12:22 -13.3 °C -16.5 °C 33639.9 hPa South 23 km/h 80.3 km/h 67 % 0 mm
12:28 -13.3 °C -16.4 °C 33639.9 hPa West 44.1 km/h 62.1 km/h 68 % 0 mm
12:34 -13.4 °C -16.6 °C 33650.1 hPa WSW 33.6 km/h 62.1 km/h 67 % 7.62 mm
12:40 -13.4 °C -16.5 °C 33650.1 hPa West 49.2 km/h 59.5 km/h 68 % 7.62 mm
12:46 -13.4 °C -16.4 °C 33650.1 hPa WSW 20.9 km/h 51.8 km/h 69 % 7.62 mm
12:52 -13.3 °C -16.2 °C 33650.1 hPa WSW 15.6 km/h 33.6 km/h 69 % 7.62 mm
12:58 -13.2 °C -16.4 °C 33650.1 hPa SW 38.8 km/h 57 km/h 67 % 7.62 mm
13:04 -13.3 °C -16.6 °C 33650.1 hPa West 38.8 km/h 51.8 km/h 66 % 7.62 mm
13:10 -13.2 °C -16.6 °C 33650.1 hPa West 31.4 km/h 57 km/h 66 % 7.62 mm
13:16 -13.1 °C -16.5 °C 33650.1 hPa WSW 44.1 km/h 59.5 km/h 65 % 7.62 mm
13:22 -12.8 °C -16.6 °C 33650.1 hPa WNW 41.7 km/h 54.4 km/h 63 % 7.62 mm
13:28 -12.8 °C -16.9 °C 33650.1 hPa WSW 31.4 km/h 72.6 km/h 60 % 7.62 mm
13:34 -12.9 °C -16.8 °C 33650.1 hPa WSW 33.6 km/h 59.5 km/h 61 % 0 mm
13:40 -12.9 °C -16.7 °C 33660.2 hPa WSW 20.9 km/h 41.4 km/h 63 % 0 mm
13:46 -13 °C -16.6 °C 33650.1 hPa SW 33.6 km/h 54.4 km/h 64 % 0 mm
13:52 -13 °C -16.4 °C 33650.1 hPa SW 17.9 km/h 49.2 km/h 65 % 0 mm
13:58 -12.9 °C -16.2 °C 33660.2 hPa SW 26.2 km/h 33.6 km/h 67 % 0 mm
14:04 -12.7 °C -16.4 °C 33650.1 hPa WSW 44.1 km/h 54.4 km/h 63 % 0 mm
14:10 -12.8 °C -16.9 °C 33660.2 hPa WSW 44.1 km/h 54.4 km/h 60 % 0 mm
14:16 -12.7 °C -16.6 °C 33660.2 hPa West 12.7 km/h 57 km/h 61 % 0 mm
14:22 -12.7 °C -16.5 °C 33660.2 hPa WSW 51.5 km/h 51.8 km/h 62 % 0 mm
14:28 -12.7 °C -16.7 °C 33660.2 hPa WSW 41.7 km/h 64.7 km/h 61 % 0 mm
14:34 -12.7 °C -16.7 °C 33660.2 hPa SW 51.5 km/h 59.5 km/h 61 % 0 mm
14:40 -12.8 °C -16.8 °C 33660.2 hPa WSW 20.9 km/h 62.1 km/h 61 % 0 mm
14:46 -12.8 °C -16.8 °C 33650.1 hPa West 23 km/h 57 km/h 61 % 0 mm
14:52 -12.7 °C -16.8 °C 33650.1 hPa SSW 36.5 km/h 38.8 km/h 60 % 0 mm
14:58 -12.7 °C -16.6 °C 33650.1 hPa West 44.1 km/h 57 km/h 62 % 0 mm
15:04 -12.7 °C -16.3 °C 33650.1 hPa SSW 33.6 km/h 44.1 km/h 64 % 0 mm
15:10 -12.7 °C -16.4 °C 33660.2 hPa SW 38.8 km/h 49.2 km/h 63 % 0 mm
15:16 -12.7 °C -16.1 °C 33660.2 hPa SSW 36.5 km/h 46.7 km/h 66 % 0 mm
15:28 -12.8 °C -16.4 °C 33660.2 hPa SW 36.5 km/h 46.7 km/h 64 % 0 mm
15:34 -12.8 °C -16.6 °C 33660.2 hPa SW 28.5 km/h 57 km/h 62 % 0 mm
15:40 -12.9 °C -16.8 °C 33660.2 hPa WSW 17.9 km/h 41.4 km/h 62 % 0 mm
15:46 -12.9 °C -16.8 °C 33660.2 hPa SW 15.6 km/h 54.4 km/h 61 % 0 mm
15:52 -12.8 °C -16.9 °C 33673.8 hPa SW 49.2 km/h 49.2 km/h 60 % 0 mm
15:58 -12.9 °C -17.3 °C 33673.8 hPa WSW 28.5 km/h 51.8 km/h 58 % 0 mm
16:04 -13.1 °C -17.3 °C 33673.8 hPa SW 31.4 km/h 62.1 km/h 59 % 0 mm
16:10 -13.2 °C -17 °C 33673.8 hPa SSW 36.5 km/h 49.2 km/h 62 % 0 mm
16:16 -13.4 °C -17.3 °C 33673.8 hPa WSW 23 km/h 51.8 km/h 61 % 0 mm
16:22 -13.2 °C -17.2 °C 33673.8 hPa WSW 17.9 km/h 38.8 km/h 61 % 0 mm
16:28 -13.1 °C -16.9 °C 33673.8 hPa SW 44.1 km/h 44.1 km/h 62 % 0 mm
16:34 -13.2 °C -17 °C 33673.8 hPa SW 28.5 km/h 49.2 km/h 62 % 0 mm
16:40 -13.2 °C -17 °C 33673.8 hPa SW 12.7 km/h 46.7 km/h 62 % 0 mm
16:46 -13.2 °C -16.8 °C 33673.8 hPa SW 20.9 km/h 41.4 km/h 63 % 0 mm
16:52 -13.2 °C -16.7 °C 33673.8 hPa SW 15.6 km/h 33.6 km/h 64 % 0 mm
16:58 -13.2 °C -17 °C 33673.8 hPa WSW 23 km/h 28.5 km/h 62 % 0 mm
17:04 -13.3 °C -17.1 °C 33673.8 hPa WSW 17.9 km/h 36.2 km/h 62 % 0 mm
17:10 -13.2 °C -17.3 °C 33673.8 hPa WSW 12.7 km/h 31.1 km/h 60 % 0 mm
17:16 -13.2 °C -17.3 °C 33673.8 hPa West 17.9 km/h 41.4 km/h 59 % 0 mm
17:22 -13.2 °C -17.2 °C 33673.8 hPa SW 15.6 km/h 28.5 km/h 61 % 0 mm
17:28 -13.3 °C -17.3 °C 33673.8 hPa West 15.6 km/h 38.8 km/h 60 % 0 mm
17:34 -13.3 °C -17.5 °C 33673.8 hPa WSW 5.1 km/h 33.6 km/h 59 % 0 mm
17:40 -13.4 °C -17.6 °C 33673.8 hPa SW 5.1 km/h 15.6 km/h 59 % 0 mm
17:46 -13.4 °C -17.6 °C 33673.8 hPa SW 7.6 km/h 20.8 km/h 59 % 0 mm
17:52 -13.5 °C -17.4 °C 33673.8 hPa SSW 10.3 km/h 15.6 km/h 61 % 0 mm
17:58 -13.6 °C -17.6 °C 33673.8 hPa SW 7.6 km/h 15.6 km/h 60 % 0 mm
18:04 -13.7 °C -17.7 °C 33673.8 hPa SW 7.6 km/h 12.9 km/h 60 % 0 mm
18:10 -13.7 °C -17.7 °C 33673.8 hPa WSW 5.1 km/h 10.3 km/h 60 % 0 mm
18:16 -13.7 °C -17.8 °C 33673.8 hPa SW 2.3 km/h 5.1 km/h 60 % 0 mm
18:22 -13.8 °C -17.8 °C 33673.8 hPa Calm   10.3 km/h 60 % 0 mm
18:28 -13.8 °C -17.7 °C 33673.8 hPa SW 2.3 km/h 5.1 km/h 61 % 0 mm
18:34 -14 °C -17.7 °C 33673.8 hPa SSW 2.3 km/h 2.6 km/h 63 % 0 mm
18:40 -14.2 °C -17.6 °C 33673.8 hPa Calm   2.6 km/h 65 % 0 mm
18:47 -14.4 °C -17.6 °C 33673.8 hPa Calm   2.6 km/h 67 % 0 mm
18:53 -14.6 °C -17.7 °C 33673.8 hPa Calm     67 % 0 mm
18:59 -14.8 °C -17.6 °C 33673.8 hPa Calm     70 % 0 mm
19:05 -14.9 °C -17.4 °C 33683.9 hPa Calm     72 % 0 mm
19:11 -14.9 °C -17.5 °C 33683.9 hPa Calm     72 % 0 mm
19:17 -15.1 °C -17.7 °C 33683.9 hPa Calm     72 % 0 mm
19:23 -15.3 °C -17.6 °C 33683.9 hPa Calm     75 % 0 mm
19:29 -15.4 °C -17.6 °C 33694.1 hPa Calm   2.6 km/h 76 % 0 mm
19:35 -15.4 °C -17.6 °C 33683.9 hPa Calm   2.6 km/h 76 % 0 mm
19:41 -15.4 °C -17.6 °C 33683.9 hPa Calm     76 % 0 mm
19:47 -15.4 °C -17.6 °C 33694.1 hPa Calm     75 % 0 mm
19:53 -15.8 °C -18.1 °C 33683.9 hPa Calm   5.1 km/h 75 % 0 mm
19:59 -16 °C -17.8 °C 33683.9 hPa North 2.3 km/h 2.6 km/h 79 % 0 mm
20:05 -16 °C -17.9 °C 33683.9 hPa NNE 2.3 km/h 2.6 km/h 78 % 0 mm
20:11 -16 °C -17.8 °C 33683.9 hPa Calm   2.6 km/h 79 % 0 mm
20:17 -16.2 °C -18.1 °C 33683.9 hPa NNW 2.3 km/h 2.6 km/h 79 % 0 mm
20:23 -16.3 °C -18 °C 33683.9 hPa Calm     80 % 0 mm
20:29 -16.3 °C -18 °C 33683.9 hPa Calm     80 % 0 mm
20:35 -16.3 °C -17.9 °C 33673.8 hPa North 2.3 km/h 2.6 km/h 81 % 0 mm
20:42 -16.4 °C -18.1 °C 33673.8 hPa North 2.3 km/h 2.6 km/h 81 % 0 mm
20:48 -16.6 °C -18.1 °C 33673.8 hPa North 2.3 km/h 5.1 km/h 82 % 0 mm
20:54 -16.6 °C -18.2 °C 33673.8 hPa Calm   2.6 km/h 81 % 0 mm
21:00 -16.7 °C -18.2 °C 33673.8 hPa NNW 2.3 km/h 2.6 km/h 82 % 0 mm
21:06 -16.8 °C -18.3 °C 33660.2 hPa NNW 2.3 km/h 5.1 km/h 83 % 0 mm
21:12 -16.8 °C -18.3 °C 33660.2 hPa Calm   2.6 km/h 83 % 0 mm
21:18 -16.8 °C -18.2 °C 33660.2 hPa NNW 2.3 km/h 2.6 km/h 84 % 0 mm
21:24 -16.8 °C -18.2 °C 33660.2 hPa Calm   2.6 km/h 84 % 0 mm
21:30 -16.7 °C -18.2 °C 33660.2 hPa Calm   2.6 km/h 83 % 0 mm
21:36 -16.6 °C -18.1 °C 33660.2 hPa Calm   2.6 km/h 82 % 0 mm
21:42 -16.6 °C -18.2 °C 33660.2 hPa Calm     81 % 0 mm
21:48 -16.6 °C -18.2 °C 33660.2 hPa NNE 2.3 km/h 5.1 km/h 82 % 0 mm
21:54 -16.6 °C -18.2 °C 33660.2 hPa Calm   5.1 km/h 81 % 0 mm
22:00 -16.7 °C -18.3 °C 33660.2 hPa Calm   2.6 km/h 81 % 0 mm
22:06 -16.8 °C -18.2 °C 33660.2 hPa NNE 5.1 km/h 5.1 km/h 83 % 0 mm
22:12 -16.7 °C -18.3 °C 33660.2 hPa Calm   2.6 km/h 81 % 0 mm
22:18 -16.7 °C -18.3 °C 33660.2 hPa North 2.3 km/h 2.6 km/h 81 % 0 mm
22:24 -16.7 °C -18.3 °C 33660.2 hPa North 2.3 km/h 5.1 km/h 81 % 0 mm
22:30 -16.8 °C -18.4 °C 33650.1 hPa Calm   2.6 km/h 81 % 0 mm
22:36 -16.8 °C -18.4 °C 33650.1 hPa Calm   2.6 km/h 81 % 0 mm
22:42 -16.9 °C -18.5 °C 33650.1 hPa NNE 2.3 km/h 2.6 km/h 81 % 0 mm
22:48 -16.9 °C -18.4 °C 33650.1 hPa Calm   5.1 km/h 82 % 0 mm
22:54 -16.9 °C -18.4 °C 33650.1 hPa North 2.3 km/h 5.1 km/h 82 % 0 mm
23:00 -17 °C -18.5 °C 33650.1 hPa NNE 2.3 km/h 5.1 km/h 82 % 0 mm
23:06 -16.9 °C -18.4 °C 33650.1 hPa Calm   5.1 km/h 82 % 0 mm
23:12 -16.8 °C -18.4 °C 33650.1 hPa Calm   2.6 km/h 81 % 0 mm
23:18 -16.8 °C -18.6 °C 33639.9 hPa NNE 2.3 km/h 2.6 km/h 80 % 0 mm
23:24 -16.9 °C -18.5 °C 33639.9 hPa Calm   5.1 km/h 81 % 0 mm
23:30 -16.9 °C -18.5 °C 33639.9 hPa NE 2.3 km/h 5.1 km/h 81 % 0 mm
23:36 -16.9 °C -18.6 °C 33639.9 hPa Calm   2.6 km/h 80 % 0 mm
23:42 -16.9 °C -18.6 °C 33639.9 hPa Calm     80 % 0 mm
23:48 -16.9 °C -18.6 °C 33639.9 hPa NE 2.3 km/h 5.1 km/h 80 % 0 mm
23:54 -16.8 °C -18.7 °C 33639.9 hPa Calm   2.6 km/h 79 % 0 mm
Meteo18
Compliments of Weather Underground - 4 mb

Script developed by  Jim McMurry - jmcmurry@mwt.net Adapted for the template by  Wim van der Kuil - Leuven-Template.eu

You find our weather info also at:

European Weather Network

Weather Underground

Equipment we use:

Weather-station
Davis Vue

Weather-program
Meteobridge

Weather-server
Raspberry PI 2 B+

Provider
1 and 1

Davis Vue

Meteobridge

Raspberry PI 2 B+

1 and 1